sensor_id;sensor_type;location;lat;lon;timestamp;temperature;humidity
3005;DHT22;1512;51.486;6.610;2022-08-14T00:01:45;23.70;66.40
3005;DHT22;1512;51.486;6.610;2022-08-14T00:05:58;23.70;67.20
3005;DHT22;1512;51.486;6.610;2022-08-14T00:10:10;23.60;67.70
3005;DHT22;1512;51.486;6.610;2022-08-14T00:14:20;23.70;69.40
3005;DHT22;1512;51.486;6.610;2022-08-14T00:18:30;23.70;69.50
3005;DHT22;1512;51.486;6.610;2022-08-14T00:22:41;23.70;70.00
3005;DHT22;1512;51.486;6.610;2022-08-14T00:26:51;23.60;71.00
3005;DHT22;1512;51.486;6.610;2022-08-14T00:31:02;23.50;71.80
3005;DHT22;1512;51.486;6.610;2022-08-14T00:35:11;23.60;71.70
3005;DHT22;1512;51.486;6.610;2022-08-14T00:39:20;23.50;71.80
3005;DHT22;1512;51.486;6.610;2022-08-14T00:43:36;23.50;72.70
3005;DHT22;1512;51.486;6.610;2022-08-14T00:48:05;23.40;73.60
3005;DHT22;1512;51.486;6.610;2022-08-14T00:52:33;23.40;74.00
3005;DHT22;1512;51.486;6.610;2022-08-14T00:56:42;23.40;74.40
3005;DHT22;1512;51.486;6.610;2022-08-14T01:00:52;23.40;76.00
3005;DHT22;1512;51.486;6.610;2022-08-14T01:05:03;23.30;77.00
3005;DHT22;1512;51.486;6.610;2022-08-14T01:09:13;23.20;77.40
3005;DHT22;1512;51.486;6.610;2022-08-14T01:13:25;23.20;77.80
3005;DHT22;1512;51.486;6.610;2022-08-14T01:17:35;23.10;78.90
3005;DHT22;1512;51.486;6.610;2022-08-14T01:22:02;23.10;80.80
3005;DHT22;1512;51.486;6.610;2022-08-14T01:26:15;23.00;81.60
3005;DHT22;1512;51.486;6.610;2022-08-14T01:30:28;23.00;83.30
3005;DHT22;1512;51.486;6.610;2022-08-14T01:34:40;22.90;84.80
3005;DHT22;1512;51.486;6.610;2022-08-14T01:38:52;22.90;86.90
3005;DHT22;1512;51.486;6.610;2022-08-14T01:43:11;22.80;88.60
3005;DHT22;1512;51.486;6.610;2022-08-14T01:47:20;22.80;90.40
3005;DHT22;1512;51.486;6.610;2022-08-14T01:51:30;22.80;91.20
3005;DHT22;1512;51.486;6.610;2022-08-14T01:55:40;22.70;92.10
3005;DHT22;1512;51.486;6.610;2022-08-14T01:59:48;22.60;93.30
3005;DHT22;1512;51.486;6.610;2022-08-14T02:03:57;22.60;94.90
3005;DHT22;1512;51.486;6.610;2022-08-14T02:08:07;22.50;96.40
3005;DHT22;1512;51.486;6.610;2022-08-14T02:12:19;22.40;98.90
3005;DHT22;1512;51.486;6.610;2022-08-14T02:16:33;22.30;99.90
3005;DHT22;1512;51.486;6.610;2022-08-14T02:20:44;22.30;99.90
3005;DHT22;1512;51.486;6.610;2022-08-14T02:24:55;22.30;99.90
3005;DHT22;1512;51.486;6.610;2022-08-14T02:29:07;22.30;99.90
3005;DHT22;1512;51.486;6.610;2022-08-14T02:33:16;22.20;99.90
3005;DHT22;1512;51.486;6.610;2022-08-14T02:37:26;22.10;99.90
3005;DHT22;1512;51.486;6.610;2022-08-14T02:41:37;22.00;99.90
3005;DHT22;1512;51.486;6.610;2022-08-14T02:45:48;22.00;99.90
3005;DHT22;1512;51.486;6.610;2022-08-14T02:49:57;21.90;99.90
3005;DHT22;1512;51.486;6.610;2022-08-14T02:54:07;21.90;99.90
3005;DHT22;1512;51.486;6.610;2022-08-14T02:58:19;21.80;99.90
3005;DHT22;1512;51.486;6.610;2022-08-14T03:02:31;21.70;99.90
3005;DHT22;1512;51.486;6.610;2022-08-14T03:06:43;21.70;99.90
3005;DHT22;1512;51.486;6.610;2022-08-14T03:10:53;21.70;99.90
3005;DHT22;1512;51.486;6.610;2022-08-14T03:15:05;21.70;99.90
3005;DHT22;1512;51.486;6.610;2022-08-14T03:19:17;21.60;99.90
3005;DHT22;1512;51.486;6.610;2022-08-14T03:23:26;21.60;99.90
3005;DHT22;1512;51.486;6.610;2022-08-14T03:27:35;21.50;99.90
3005;DHT22;1512;51.486;6.610;2022-08-14T03:31:45;21.50;99.90
3005;DHT22;1512;51.486;6.610;2022-08-14T03:35:56;21.50;99.90
3005;DHT22;1512;51.486;6.610;2022-08-14T03:40:08;21.40;99.90
3005;DHT22;1512;51.486;6.610;2022-08-14T03:44:20;21.40;99.90
3005;DHT22;1512;51.486;6.610;2022-08-14T03:48:31;21.40;99.90
3005;DHT22;1512;51.486;6.610;2022-08-14T03:52:41;21.30;99.90
3005;DHT22;1512;51.486;6.610;2022-08-14T03:56:52;21.30;99.90
3005;DHT22;1512;51.486;6.610;2022-08-14T04:01:01;21.30;99.90
3005;DHT22;1512;51.486;6.610;2022-08-14T04:05:12;21.20;99.90
3005;DHT22;1512;51.486;6.610;2022-08-14T04:09:28;21.10;99.90
3005;DHT22;1512;51.486;6.610;2022-08-14T04:13:40;21.00;99.90
3005;DHT22;1512;51.486;6.610;2022-08-14T04:17:49;21.00;99.90
3005;DHT22;1512;51.486;6.610;2022-08-14T04:21:59;21.00;99.90
3005;DHT22;1512;51.486;6.610;2022-08-14T04:26:11;20.90;99.90
3005;DHT22;1512;51.486;6.610;2022-08-14T04:30:22;21.00;99.90
3005;DHT22;1512;51.486;6.610;2022-08-14T04:34:36;20.90;99.90
3005;DHT22;1512;51.486;6.610;2022-08-14T04:38:48;20.90;99.90
3005;DHT22;1512;51.486;6.610;2022-08-14T04:43:16;20.80;99.90
3005;DHT22;1512;51.486;6.610;2022-08-14T04:47:46;20.80;99.90
3005;DHT22;1512;51.486;6.610;2022-08-14T04:52:14;20.80;99.90
3005;DHT22;1512;51.486;6.610;2022-08-14T04:56:25;20.80;99.90
3005;DHT22;1512;51.486;6.610;2022-08-14T05:00:36;20.80;99.90
3005;DHT22;1512;51.486;6.610;2022-08-14T05:04:48;20.80;99.90
3005;DHT22;1512;51.486;6.610;2022-08-14T05:09:18;20.80;99.90
3005;DHT22;1512;51.486;6.610;2022-08-14T05:13:29;20.90;99.90
3005;DHT22;1512;51.486;6.610;2022-08-14T05:17:41;20.90;99.90
3005;DHT22;1512;51.486;6.610;2022-08-14T05:21:52;20.90;99.90
3005;DHT22;1512;51.486;6.610;2022-08-14T05:26:04;20.90;99.90
3005;DHT22;1512;51.486;6.610;2022-08-14T05:30:15;20.90;99.90
3005;DHT22;1512;51.486;6.610;2022-08-14T05:34:24;20.90;99.90
3005;DHT22;1512;51.486;6.610;2022-08-14T05:38:39;20.90;99.90
3005;DHT22;1512;51.486;6.610;2022-08-14T05:42:50;21.00;99.90
3005;DHT22;1512;51.486;6.610;2022-08-14T05:46:59;21.00;99.90
3005;DHT22;1512;51.486;6.610;2022-08-14T05:51:10;21.10;99.90
3005;DHT22;1512;51.486;6.610;2022-08-14T05:55:21;21.20;99.90
3005;DHT22;1512;51.486;6.610;2022-08-14T05:59:30;21.20;99.90
3005;DHT22;1512;51.486;6.610;2022-08-14T06:03:48;21.30;99.90
3005;DHT22;1512;51.486;6.610;2022-08-14T06:07:59;21.40;99.90
3005;DHT22;1512;51.486;6.610;2022-08-14T06:12:10;21.40;99.90
3005;DHT22;1512;51.486;6.610;2022-08-14T06:16:20;21.50;99.90
3005;DHT22;1512;51.486;6.610;2022-08-14T06:20:31;21.60;99.90
3005;DHT22;1512;51.486;6.610;2022-08-14T06:24:40;21.70;99.90
3005;DHT22;1512;51.486;6.610;2022-08-14T06:28:50;21.80;99.90
3005;DHT22;1512;51.486;6.610;2022-08-14T06:32:59;21.80;99.90
3005;DHT22;1512;51.486;6.610;2022-08-14T06:37:10;21.90;99.90
3005;DHT22;1512;51.486;6.610;2022-08-14T06:41:18;22.00;99.90
3005;DHT22;1512;51.486;6.610;2022-08-14T06:45:34;22.10;99.90
3005;DHT22;1512;51.486;6.610;2022-08-14T06:49:40;22.20;99.90
3005;DHT22;1512;51.486;6.610;2022-08-14T06:53:50;22.30;99.90
3005;DHT22;1512;51.486;6.610;2022-08-14T06:58:01;22.40;99.90
3005;DHT22;1512;51.486;6.610;2022-08-14T07:02:10;22.50;99.90
3005;DHT22;1512;51.486;6.610;2022-08-14T07:06:36;22.60;99.90
3005;DHT22;1512;51.486;6.610;2022-08-14T07:10:50;22.70;99.90
3005;DHT22;1512;51.486;6.610;2022-08-14T07:15:00;22.80;99.90
3005;DHT22;1512;51.486;6.610;2022-08-14T07:19:10;23.00;99.90
3005;DHT22;1512;51.486;6.610;2022-08-14T07:23:19;23.10;99.90
3005;DHT22;1512;51.486;6.610;2022-08-14T07:27:50;23.30;99.90
3005;DHT22;1512;51.486;6.610;2022-08-14T07:31:58;23.40;99.90
3005;DHT22;1512;51.486;6.610;2022-08-14T07:36:10;23.50;99.90
3005;DHT22;1512;51.486;6.610;2022-08-14T07:40:20;23.70;99.90
3005;DHT22;1512;51.486;6.610;2022-08-14T07:44:30;23.80;99.90
3005;DHT22;1512;51.486;6.610;2022-08-14T07:48:41;23.90;99.90
3005;DHT22;1512;51.486;6.610;2022-08-14T07:52:52;24.10;99.90
3005;DHT22;1512;51.486;6.610;2022-08-14T07:57:02;24.20;99.90
3005;DHT22;1512;51.486;6.610;2022-08-14T08:01:13;24.30;99.90
3005;DHT22;1512;51.486;6.610;2022-08-14T08:05:24;24.40;99.90
3005;DHT22;1512;51.486;6.610;2022-08-14T08:09:35;24.60;99.90
3005;DHT22;1512;51.486;6.610;2022-08-14T08:13:47;24.80;99.90
3005;DHT22;1512;51.486;6.610;2022-08-14T08:17:59;24.90;99.90
3005;DHT22;1512;51.486;6.610;2022-08-14T08:22:10;25.10;99.90
3005;DHT22;1512;51.486;6.610;2022-08-14T08:26:19;25.20;99.90
3005;DHT22;1512;51.486;6.610;2022-08-14T08:30:30;25.40;99.90
3005;DHT22;1512;51.486;6.610;2022-08-14T08:34:44;25.60;99.90
3005;DHT22;1512;51.486;6.610;2022-08-14T08:38:58;25.80;99.90
3005;DHT22;1512;51.486;6.610;2022-08-14T08:47:40;26.20;99.90
3005;DHT22;1512;51.486;6.610;2022-08-14T08:51:52;26.40;99.90
3005;DHT22;1512;51.486;6.610;2022-08-14T08:56:03;26.50;99.90
3005;DHT22;1512;51.486;6.610;2022-08-14T09:00:31;26.70;99.90
3005;DHT22;1512;51.486;6.610;2022-08-14T09:04:45;26.90;99.90
3005;DHT22;1512;51.486;6.610;2022-08-14T09:08:56;27.10;99.90
3005;DHT22;1512;51.486;6.610;2022-08-14T09:13:04;27.30;99.90
3005;DHT22;1512;51.486;6.610;2022-08-14T09:17:14;27.40;99.90
3005;DHT22;1512;51.486;6.610;2022-08-14T09:21:24;27.60;99.90
3005;DHT22;1512;51.486;6.610;2022-08-14T09:25:35;27.80;99.90
3005;DHT22;1512;51.486;6.610;2022-08-14T09:29:45;28.00;98.90
3005;DHT22;1512;51.486;6.610;2022-08-14T09:34:03;28.20;98.90
3005;DHT22;1512;51.486;6.610;2022-08-14T09:42:42;28.50;97.30
3005;DHT22;1512;51.486;6.610;2022-08-14T09:46:55;28.60;94.00
3005;DHT22;1512;51.486;6.610;2022-08-14T09:51:06;28.60;92.10
3005;DHT22;1512;51.486;6.610;2022-08-14T09:55:19;28.70;93.50
3005;DHT22;1512;51.486;6.610;2022-08-14T09:59:38;28.90;92.50
3005;DHT22;1512;51.486;6.610;2022-08-14T10:03:48;29.10;90.80
3005;DHT22;1512;51.486;6.610;2022-08-14T10:07:58;29.30;89.50
3005;DHT22;1512;51.486;6.610;2022-08-14T10:12:09;29.50;86.70
3005;DHT22;1512;51.486;6.610;2022-08-14T10:16:21;29.70;85.70
3005;DHT22;1512;51.486;6.610;2022-08-14T10:20:41;29.90;81.10
3005;DHT22;1512;51.486;6.610;2022-08-14T10:25:12;30.10;79.30
3005;DHT22;1512;51.486;6.610;2022-08-14T10:29:37;30.20;73.00
3005;DHT22;1512;51.486;6.610;2022-08-14T10:38:30;30.30;68.80
3005;DHT22;1512;51.486;6.610;2022-08-14T10:42:40;30.40;69.30
3005;DHT22;1512;51.486;6.610;2022-08-14T10:46:52;30.50;69.50
3005;DHT22;1512;51.486;6.610;2022-08-14T10:51:05;30.70;63.10
3005;DHT22;1512;51.486;6.610;2022-08-14T10:55:16;30.80;63.40
3005;DHT22;1512;51.486;6.610;2022-08-14T10:59:27;30.90;65.30
3005;DHT22;1512;51.486;6.610;2022-08-14T11:03:41;31.10;63.50
3005;DHT22;1512;51.486;6.610;2022-08-14T11:07:57;31.30;62.50
3005;DHT22;1512;51.486;6.610;2022-08-14T11:12:07;31.50;59.00
3005;DHT22;1512;51.486;6.610;2022-08-14T11:16:18;31.50;59.60
3005;DHT22;1512;51.486;6.610;2022-08-14T11:20:30;31.60;60.20
3005;DHT22;1512;51.486;6.610;2022-08-14T11:24:40;31.80;58.90
3005;DHT22;1512;51.486;6.610;2022-08-14T11:28:52;31.80;57.60
3005;DHT22;1512;51.486;6.610;2022-08-14T11:33:04;31.90;56.80
3005;DHT22;1512;51.486;6.610;2022-08-14T11:37:15;32.00;56.20
3005;DHT22;1512;51.486;6.610;2022-08-14T11:41:25;32.00;57.30
3005;DHT22;1512;51.486;6.610;2022-08-14T11:45:36;32.20;54.40
3005;DHT22;1512;51.486;6.610;2022-08-14T11:49:46;32.20;56.80
3005;DHT22;1512;51.486;6.610;2022-08-14T11:54:02;32.30;54.80
3005;DHT22;1512;51.486;6.610;2022-08-14T11:58:12;32.20;54.30
3005;DHT22;1512;51.486;6.610;2022-08-14T12:02:24;32.40;55.40
3005;DHT22;1512;51.486;6.610;2022-08-14T12:10:59;32.60;53.90
3005;DHT22;1512;51.486;6.610;2022-08-14T12:15:09;32.80;52.70
3005;DHT22;1512;51.486;6.610;2022-08-14T12:19:19;32.80;53.60
3005;DHT22;1512;51.486;6.610;2022-08-14T12:23:28;32.80;51.70
3005;DHT22;1512;51.486;6.610;2022-08-14T12:27:48;32.80;52.60
3005;DHT22;1512;51.486;6.610;2022-08-14T12:31:59;32.70;50.80
3005;DHT22;1512;51.486;6.610;2022-08-14T12:36:18;32.80;53.10
3005;DHT22;1512;51.486;6.610;2022-08-14T12:40:25;32.80;51.80
3005;DHT22;1512;51.486;6.610;2022-08-14T12:44:38;32.90;52.80
3005;DHT22;1512;51.486;6.610;2022-08-14T12:48:49;33.00;52.90
3005;DHT22;1512;51.486;6.610;2022-08-14T12:52:58;33.00;51.90
3005;DHT22;1512;51.486;6.610;2022-08-14T12:57:11;33.10;51.90
3005;DHT22;1512;51.486;6.610;2022-08-14T13:01:26;33.10;51.50
3005;DHT22;1512;51.486;6.610;2022-08-14T13:05:34;33.20;51.00
3005;DHT22;1512;51.486;6.610;2022-08-14T13:09:45;33.30;51.40
3005;DHT22;1512;51.486;6.610;2022-08-14T13:13:57;33.30;49.00
3005;DHT22;1512;51.486;6.610;2022-08-14T13:18:08;33.30;50.10
3005;DHT22;1512;51.486;6.610;2022-08-14T13:22:24;33.30;50.70
3005;DHT22;1512;51.486;6.610;2022-08-14T13:26:34;33.50;50.20
3005;DHT22;1512;51.486;6.610;2022-08-14T13:30:44;33.50;50.20
3005;DHT22;1512;51.486;6.610;2022-08-14T13:34:53;33.40;50.40
3005;DHT22;1512;51.486;6.610;2022-08-14T13:39:03;33.50;50.00
3005;DHT22;1512;51.486;6.610;2022-08-14T13:43:13;33.50;49.80
3005;DHT22;1512;51.486;6.610;2022-08-14T13:47:24;33.50;50.40
3005;DHT22;1512;51.486;6.610;2022-08-14T13:51:42;33.50;50.50
3005;DHT22;1512;51.486;6.610;2022-08-14T13:55:56;33.80;50.40
3005;DHT22;1512;51.486;6.610;2022-08-14T14:00:09;33.80;49.10
3005;DHT22;1512;51.486;6.610;2022-08-14T14:04:22;33.70;50.30
3005;DHT22;1512;51.486;6.610;2022-08-14T14:08:34;33.60;50.60
3005;DHT22;1512;51.486;6.610;2022-08-14T14:12:48;33.10;50.30
3005;DHT22;1512;51.486;6.610;2022-08-14T14:16:59;32.60;50.70
3005;DHT22;1512;51.486;6.610;2022-08-14T14:21:08;32.30;51.20
3005;DHT22;1512;51.486;6.610;2022-08-14T14:25:18;32.50;49.90
3005;DHT22;1512;51.486;6.610;2022-08-14T14:29:30;32.70;49.00
3005;DHT22;1512;51.486;6.610;2022-08-14T14:33:42;32.90;47.30
3005;DHT22;1512;51.486;6.610;2022-08-14T14:37:54;33.20;48.90
3005;DHT22;1512;51.486;6.610;2022-08-14T14:42:04;33.50;49.90
3005;DHT22;1512;51.486;6.610;2022-08-14T14:46:17;33.60;50.20
3005;DHT22;1512;51.486;6.610;2022-08-14T14:50:26;33.40;49.30
3005;DHT22;1512;51.486;6.610;2022-08-14T14:54:35;33.40;48.60
3005;DHT22;1512;51.486;6.610;2022-08-14T14:58:45;33.50;48.40
3005;DHT22;1512;51.486;6.610;2022-08-14T15:02:54;33.60;48.60
3005;DHT22;1512;51.486;6.610;2022-08-14T15:07:06;33.50;49.20
3005;DHT22;1512;51.486;6.610;2022-08-14T15:11:14;33.10;49.60
3005;DHT22;1512;51.486;6.610;2022-08-14T15:15:23;32.90;49.90
3005;DHT22;1512;51.486;6.610;2022-08-14T15:19:52;32.90;50.20
3005;DHT22;1512;51.486;6.610;2022-08-14T15:24:03;32.60;48.90
3005;DHT22;1512;51.486;6.610;2022-08-14T15:28:14;32.10;48.10
3005;DHT22;1512;51.486;6.610;2022-08-14T15:32:25;31.80;49.70
3005;DHT22;1512;51.486;6.610;2022-08-14T15:36:35;31.80;50.10
3005;DHT22;1512;51.486;6.610;2022-08-14T15:40:45;31.80;51.10
3005;DHT22;1512;51.486;6.610;2022-08-14T15:44:55;31.70;52.60
3005;DHT22;1512;51.486;6.610;2022-08-14T15:49:06;31.70;53.70
3005;DHT22;1512;51.486;6.610;2022-08-14T15:53:14;31.60;52.30
3005;DHT22;1512;51.486;6.610;2022-08-14T15:57:23;31.40;49.10
3005;DHT22;1512;51.486;6.610;2022-08-14T16:01:33;31.30;50.50
3005;DHT22;1512;51.486;6.610;2022-08-14T16:05:44;31.30;52.40
3005;DHT22;1512;51.486;6.610;2022-08-14T16:09:53;31.20;52.70
3005;DHT22;1512;51.486;6.610;2022-08-14T16:14:04;31.10;52.90
3005;DHT22;1512;51.486;6.610;2022-08-14T16:18:14;31.00;53.80
3005;DHT22;1512;51.486;6.610;2022-08-14T16:22:25;30.90;53.90
3005;DHT22;1512;51.486;6.610;2022-08-14T16:26:35;31.00;54.00
3005;DHT22;1512;51.486;6.610;2022-08-14T16:30:47;31.00;54.40
3005;DHT22;1512;51.486;6.610;2022-08-14T16:34:59;30.90;55.00
3005;DHT22;1512;51.486;6.610;2022-08-14T16:39:08;30.70;56.50
3005;DHT22;1512;51.486;6.610;2022-08-14T16:43:18;30.60;56.80
3005;DHT22;1512;51.486;6.610;2022-08-14T16:47:29;30.50;56.70
3005;DHT22;1512;51.486;6.610;2022-08-14T16:51:40;30.40;56.10
3005;DHT22;1512;51.486;6.610;2022-08-14T16:56:12;30.40;56.80
3005;DHT22;1512;51.486;6.610;2022-08-14T17:00:30;30.30;57.40
3005;DHT22;1512;51.486;6.610;2022-08-14T17:04:39;30.30;57.60
3005;DHT22;1512;51.486;6.610;2022-08-14T17:08:51;30.20;57.50
3005;DHT22;1512;51.486;6.610;2022-08-14T17:13:18;30.20;57.80
3005;DHT22;1512;51.486;6.610;2022-08-14T17:21:51;30.10;58.40
3005;DHT22;1512;51.486;6.610;2022-08-14T17:26:00;30.00;58.80
3005;DHT22;1512;51.486;6.610;2022-08-14T17:30:10;29.90;59.20
3005;DHT22;1512;51.486;6.610;2022-08-14T17:34:20;29.90;59.30
3005;DHT22;1512;51.486;6.610;2022-08-14T17:38:31;29.80;59.90
3005;DHT22;1512;51.486;6.610;2022-08-14T17:47:01;29.60;60.60
3005;DHT22;1512;51.486;6.610;2022-08-14T17:51:10;29.60;60.30
3005;DHT22;1512;51.486;6.610;2022-08-14T17:55:20;29.50;60.20
3005;DHT22;1512;51.486;6.610;2022-08-14T17:59:34;29.50;61.30
3005;DHT22;1512;51.486;6.610;2022-08-14T18:03:44;29.50;62.50
3005;DHT22;1512;51.486;6.610;2022-08-14T18:07:57;29.30;63.20
3005;DHT22;1512;51.486;6.610;2022-08-14T18:12:09;29.30;63.90
3005;DHT22;1512;51.486;6.610;2022-08-14T18:16:19;29.20;64.20
3005;DHT22;1512;51.486;6.610;2022-08-14T18:20:29;29.10;64.30
3005;DHT22;1512;51.486;6.610;2022-08-14T18:24:40;29.00;65.50
3005;DHT22;1512;51.486;6.610;2022-08-14T18:28:50;28.90;66.60
3005;DHT22;1512;51.486;6.610;2022-08-14T18:33:11;28.80;67.10
3005;DHT22;1512;51.486;6.610;2022-08-14T18:37:19;28.70;67.30
3005;DHT22;1512;51.486;6.610;2022-08-14T18:41:27;28.60;67.20
3005;DHT22;1512;51.486;6.610;2022-08-14T18:45:56;28.50;66.80
3005;DHT22;1512;51.486;6.610;2022-08-14T18:50:03;28.40;66.60
3005;DHT22;1512;51.486;6.610;2022-08-14T18:54:07;28.40;67.00
3005;DHT22;1512;51.486;6.610;2022-08-14T18:58:18;28.30;68.70
3005;DHT22;1512;51.486;6.610;2022-08-14T19:06:45;28.10;69.10
3005;DHT22;1512;51.486;6.610;2022-08-14T19:11:00;28.00;69.00
3005;DHT22;1512;51.486;6.610;2022-08-14T19:15:17;28.00;69.20
3005;DHT22;1512;51.486;6.610;2022-08-14T19:19:26;28.00;69.10
3005;DHT22;1512;51.486;6.610;2022-08-14T19:23:37;27.90;69.40
3005;DHT22;1512;51.486;6.610;2022-08-14T19:28:13;27.80;69.90
3005;DHT22;1512;51.486;6.610;2022-08-14T19:32:03;27.80;70.50
3005;DHT22;1512;51.486;6.610;2022-08-14T19:36:14;27.70;70.80
3005;DHT22;1512;51.486;6.610;2022-08-14T19:40:33;27.60;70.90
3005;DHT22;1512;51.486;6.610;2022-08-14T19:44:44;27.60;71.90
3005;DHT22;1512;51.486;6.610;2022-08-14T19:48:55;27.40;73.80
3005;DHT22;1512;51.486;6.610;2022-08-14T19:53:06;27.20;73.90
3005;DHT22;1512;51.486;6.610;2022-08-14T19:57:22;27.10;74.50
3005;DHT22;1512;51.486;6.610;2022-08-14T20:01:36;27.10;74.60
3005;DHT22;1512;51.486;6.610;2022-08-14T20:05:45;27.00;74.90
3005;DHT22;1512;51.486;6.610;2022-08-14T20:09:56;27.00;74.30
3005;DHT22;1512;51.486;6.610;2022-08-14T20:14:08;26.90;75.40
3005;DHT22;1512;51.486;6.610;2022-08-14T20:18:25;26.80;75.70
3005;DHT22;1512;51.486;6.610;2022-08-14T20:22:36;26.70;76.60
3005;DHT22;1512;51.486;6.610;2022-08-14T20:31:18;26.50;77.30
3005;DHT22;1512;51.486;6.610;2022-08-14T20:35:34;26.40;78.10
3005;DHT22;1512;51.486;6.610;2022-08-14T20:39:44;26.40;79.00
3005;DHT22;1512;51.486;6.610;2022-08-14T20:43:56;26.30;79.70
3005;DHT22;1512;51.486;6.610;2022-08-14T20:48:27;26.30;80.70
3005;DHT22;1512;51.486;6.610;2022-08-14T20:52:37;26.20;82.40
3005;DHT22;1512;51.486;6.610;2022-08-14T20:56:49;26.10;82.90
3005;DHT22;1512;51.486;6.610;2022-08-14T21:05:24;25.90;85.20
3005;DHT22;1512;51.486;6.610;2022-08-14T21:09:47;25.90;85.80
3005;DHT22;1512;51.486;6.610;2022-08-14T21:13:57;25.80;85.00
3005;DHT22;1512;51.486;6.610;2022-08-14T21:18:08;25.80;86.20
3005;DHT22;1512;51.486;6.610;2022-08-14T21:22:20;25.60;87.40
3005;DHT22;1512;51.486;6.610;2022-08-14T21:26:29;25.60;88.80
3005;DHT22;1512;51.486;6.610;2022-08-14T21:30:40;25.50;89.30
3005;DHT22;1512;51.486;6.610;2022-08-14T21:34:53;25.40;90.40
3005;DHT22;1512;51.486;6.610;2022-08-14T21:39:02;25.40;91.40
3005;DHT22;1512;51.486;6.610;2022-08-14T21:43:14;25.40;92.30
3005;DHT22;1512;51.486;6.610;2022-08-14T21:47:25;25.30;93.00
3005;DHT22;1512;51.486;6.610;2022-08-14T21:51:36;25.20;94.10
3005;DHT22;1512;51.486;6.610;2022-08-14T21:55:47;25.20;94.20
3005;DHT22;1512;51.486;6.610;2022-08-14T21:59:58;25.10;95.20
3005;DHT22;1512;51.486;6.610;2022-08-14T22:04:10;25.10;96.10
3005;DHT22;1512;51.486;6.610;2022-08-14T22:08:21;25.10;97.30
3005;DHT22;1512;51.486;6.610;2022-08-14T22:12:32;25.10;98.60
3005;DHT22;1512;51.486;6.610;2022-08-14T22:16:44;25.00;99.60
3005;DHT22;1512;51.486;6.610;2022-08-14T22:20:54;24.90;99.90
3005;DHT22;1512;51.486;6.610;2022-08-14T22:25:04;24.90;99.90
3005;DHT22;1512;51.486;6.610;2022-08-14T22:29:14;24.90;99.90
3005;DHT22;1512;51.486;6.610;2022-08-14T22:33:27;24.80;99.90
3005;DHT22;1512;51.486;6.610;2022-08-14T22:37:37;24.80;99.90
3005;DHT22;1512;51.486;6.610;2022-08-14T22:41:48;24.80;99.90
3005;DHT22;1512;51.486;6.610;2022-08-14T22:45:59;24.70;99.90
3005;DHT22;1512;51.486;6.610;2022-08-14T22:50:09;24.60;99.90
3005;DHT22;1512;51.486;6.610;2022-08-14T22:54:20;24.60;99.90
3005;DHT22;1512;51.486;6.610;2022-08-14T22:58:31;24.50;99.90
3005;DHT22;1512;51.486;6.610;2022-08-14T23:02:42;24.40;99.90
3005;DHT22;1512;51.486;6.610;2022-08-14T23:06:51;24.40;99.90
3005;DHT22;1512;51.486;6.610;2022-08-14T23:11:03;24.30;99.90
3005;DHT22;1512;51.486;6.610;2022-08-14T23:15:15;24.30;99.90
3005;DHT22;1512;51.486;6.610;2022-08-14T23:19:25;24.30;99.90
3005;DHT22;1512;51.486;6.610;2022-08-14T23:23:37;24.20;99.90
3005;DHT22;1512;51.486;6.610;2022-08-14T23:27:47;24.20;99.90
3005;DHT22;1512;51.486;6.610;2022-08-14T23:31:57;24.10;99.90
3005;DHT22;1512;51.486;6.610;2022-08-14T23:36:07;24.00;99.90
3005;DHT22;1512;51.486;6.610;2022-08-14T23:40:17;23.90;99.90
3005;DHT22;1512;51.486;6.610;2022-08-14T23:44:28;23.90;99.90
3005;DHT22;1512;51.486;6.610;2022-08-14T23:48:40;23.80;99.90
3005;DHT22;1512;51.486;6.610;2022-08-14T23:52:51;23.80;99.90
3005;DHT22;1512;51.486;6.610;2022-08-14T23:57:01;23.70;99.90
